createdAt,value
2022-11-26T00:01:45.051Z,23.90
2022-11-26T00:04:15.890Z,23.80
2022-11-26T00:06:44.987Z,22.83
2022-11-26T00:09:19.871Z,21.63
2022-11-26T00:11:47.373Z,23.30
2022-11-26T00:14:15.993Z,25.20
2022-11-26T00:16:44.029Z,26.05
2022-11-26T00:19:11.545Z,26.35
2022-11-26T00:21:41.419Z,22.45
2022-11-26T00:24:28.194Z,25.50
2022-11-26T00:26:57.856Z,22.83
2022-11-26T00:29:25.694Z,34.67
2022-11-26T00:31:53.319Z,23.40
2022-11-26T00:34:20.973Z,28.80
2022-11-26T00:36:49.093Z,27.98
2022-11-26T00:39:23.864Z,31.83
2022-11-26T00:41:52.535Z,26.25
2022-11-26T00:44:25.678Z,23.80
2022-11-26T00:46:53.403Z,29.52
2022-11-26T00:49:21.232Z,22.77
2022-11-26T00:51:49.063Z,28.35
2022-11-26T00:54:18.853Z,26.25
2022-11-26T00:56:48.372Z,29.70
2022-11-26T00:59:21.618Z,25.80
2022-11-26T01:01:49.648Z,30.38
2022-11-26T01:04:17.234Z,29.23
2022-11-26T01:06:45.659Z,27.00
2022-11-26T01:09:22.251Z,26.90
2022-11-26T01:11:53.707Z,33.97
2022-11-26T01:14:22.734Z,29.00
2022-11-26T01:16:51.527Z,26.48
2022-11-26T01:19:19.069Z,30.30
2022-11-26T01:21:46.892Z,36.35
2022-11-26T01:24:14.402Z,36.80
2022-11-26T01:26:44.283Z,32.15
2022-11-26T01:29:17.541Z,29.00
2022-11-26T01:31:45.761Z,34.78
2022-11-26T01:34:13.734Z,39.05
2022-11-26T01:36:42.502Z,36.22
2022-11-26T01:39:09.932Z,38.67
2022-11-26T01:41:44.893Z,32.58
2022-11-26T01:44:22.635Z,34.50
2022-11-26T01:46:51.490Z,32.13
2022-11-26T01:49:38.804Z,33.28
2022-11-26T01:52:30.092Z,38.55
2022-11-26T01:54:57.765Z,33.63
2022-11-26T01:57:29.973Z,33.58
2022-11-26T02:00:01.662Z,38.67
2022-11-26T02:02:40.555Z,33.97
2022-11-26T02:05:24.761Z,33.30
2022-11-26T02:07:53.372Z,34.85
2022-11-26T02:10:20.934Z,35.10
2022-11-26T02:12:49.410Z,37.83
2022-11-26T02:15:16.940Z,46.53
2022-11-26T02:17:52.704Z,39.13
2022-11-26T02:20:49.462Z,37.88
2022-11-26T02:23:42.983Z,36.65
2022-11-26T02:26:58.575Z,36.80
2022-11-26T02:29:41.594Z,40.03
2022-11-26T02:32:28.314Z,37.10
2022-11-26T02:35:02.685Z,34.67
2022-11-26T02:37:58.054Z,38.70
2022-11-26T02:40:26.224Z,41.38
2022-11-26T02:42:53.734Z,38.13
2022-11-26T02:45:26.119Z,44.42
2022-11-26T02:47:56.484Z,33.88
2022-11-26T02:50:35.313Z,39.80
2022-11-26T02:53:05.631Z,32.95
2022-11-26T02:55:37.866Z,37.60
2022-11-26T02:58:06.444Z,37.50
2022-11-26T03:00:36.983Z,35.92
2022-11-26T03:03:11.042Z,36.28
2022-11-26T03:05:41.896Z,39.38
2022-11-26T03:08:09.642Z,40.67
2022-11-26T03:10:37.034Z,44.17
2022-11-26T03:13:04.592Z,35.80
2022-11-26T03:15:32.104Z,37.17
2022-11-26T03:17:59.806Z,37.67
2022-11-26T03:20:27.225Z,32.97
2022-11-26T03:22:54.874Z,31.85
2022-11-26T03:25:22.313Z,34.42
2022-11-26T03:27:49.742Z,33.03
2022-11-26T03:30:17.612Z,37.92
2022-11-26T03:32:45.304Z,35.58
2022-11-26T03:35:12.995Z,44.38
2022-11-26T03:37:40.505Z,38.42
2022-11-26T03:40:08.934Z,32.90
2022-11-26T03:42:36.973Z,37.13
2022-11-26T03:45:04.860Z,37.78
2022-11-26T03:47:32.365Z,27.08
2022-11-26T03:49:59.881Z,25.98
2022-11-26T03:52:27.514Z,26.98
2022-11-26T03:54:54.995Z,25.77
2022-11-26T03:57:22.524Z,17.42
2022-11-26T03:59:50.050Z,17.67
2022-11-26T04:02:17.571Z,19.63
2022-11-26T04:04:45.070Z,23.92
2022-11-26T04:07:12.686Z,22.40
2022-11-26T04:09:40.251Z,22.52
2022-11-26T04:12:07.775Z,22.00
2022-11-26T04:14:35.396Z,20.98
2022-11-26T04:17:03.177Z,20.67
2022-11-26T04:19:30.873Z,21.65
2022-11-26T04:21:58.623Z,19.70
2022-11-26T04:24:26.100Z,21.73
2022-11-26T04:26:53.693Z,21.60
2022-11-26T04:29:21.146Z,27.65
2022-11-26T04:31:48.740Z,26.75
2022-11-26T04:34:16.273Z,29.77
2022-11-26T04:36:43.855Z,24.83
2022-11-26T04:39:12.752Z,26.38
2022-11-26T04:41:40.283Z,23.30
2022-11-26T04:44:07.814Z,27.10
2022-11-26T04:46:35.263Z,32.25
2022-11-26T04:49:03.086Z,27.15
2022-11-26T04:51:30.573Z,36.40
2022-11-26T04:54:02.563Z,38.00
2022-11-26T04:56:31.054Z,35.03
2022-11-26T04:58:58.490Z,35.53
2022-11-26T05:01:26.110Z,44.92
2022-11-26T05:03:53.625Z,35.22
2022-11-26T05:06:21.243Z,39.58
2022-11-26T05:08:48.695Z,45.03
2022-11-26T05:11:16.303Z,40.45
2022-11-26T05:13:43.974Z,51.38
2022-11-26T05:16:11.547Z,46.25
2022-11-26T05:18:39.090Z,45.80
2022-11-26T05:21:06.965Z,46.17
2022-11-26T05:23:34.695Z,47.58
2022-11-26T05:26:02.211Z,42.78
2022-11-26T05:28:29.715Z,41.03
2022-11-26T05:31:01.859Z,45.92
2022-11-26T05:33:29.784Z,49.67
2022-11-26T05:35:57.372Z,44.40
2022-11-26T05:38:24.976Z,43.72
2022-11-26T05:40:52.511Z,46.38
2022-11-26T05:43:20.073Z,47.10
2022-11-26T05:45:47.668Z,40.80
2022-11-26T05:48:15.375Z,38.05
2022-11-26T05:50:42.994Z,39.42
2022-11-26T05:53:10.620Z,39.72
2022-11-26T05:55:38.247Z,37.45
2022-11-26T05:58:05.863Z,35.40
2022-11-26T06:00:33.321Z,40.53
2022-11-26T06:03:00.882Z,45.00
2022-11-26T06:05:28.384Z,39.28
2022-11-26T06:07:56.008Z,37.70
2022-11-26T06:10:23.600Z,41.55
2022-11-26T06:12:51.263Z,43.88
2022-11-26T06:15:18.951Z,35.22
2022-11-26T06:17:46.521Z,41.70
2022-11-26T06:20:14.304Z,37.08
2022-11-26T06:22:43.422Z,35.17
2022-11-26T06:25:14.236Z,38.53
2022-11-26T06:27:42.611Z,39.20
2022-11-26T06:30:11.795Z,39.72
2022-11-26T06:32:39.285Z,51.22
2022-11-26T06:35:07.030Z,46.20
2022-11-26T06:37:34.612Z,43.83
2022-11-26T06:40:02.605Z,50.30
2022-11-26T06:42:30.203Z,55.05
2022-11-26T06:44:59.935Z,52.75
2022-11-26T06:47:28.206Z,47.58
2022-11-26T06:49:55.769Z,51.60
2022-11-26T06:52:23.291Z,56.85
2022-11-26T06:54:51.126Z,46.33
2022-11-26T06:57:18.644Z,44.63
2022-11-26T06:59:46.169Z,44.00
2022-11-26T07:02:13.787Z,37.35
2022-11-26T07:04:41.621Z,48.88
2022-11-26T07:07:09.559Z,39.67
2022-11-26T07:09:37.063Z,35.78
2022-11-26T07:12:04.699Z,38.83
2022-11-26T07:14:32.344Z,40.28
2022-11-26T07:16:59.877Z,39.95
2022-11-26T07:19:27.408Z,36.33
2022-11-26T07:21:54.966Z,34.45
2022-11-26T07:24:22.503Z,38.33
2022-11-26T07:26:50.019Z,40.30
2022-11-26T07:29:17.635Z,36.72
2022-11-26T07:31:45.225Z,45.65
2022-11-26T07:34:12.770Z,38.70
2022-11-26T07:36:43.353Z,45.95
2022-11-26T07:39:12.129Z,42.20
2022-11-26T07:41:39.745Z,41.58
2022-11-26T07:44:07.204Z,41.17
2022-11-26T07:46:34.727Z,41.92
2022-11-26T07:49:02.229Z,36.20
2022-11-26T07:51:31.689Z,42.55
2022-11-26T07:54:03.274Z,43.50
2022-11-26T07:56:30.882Z,29.52
2022-11-26T07:58:58.744Z,40.05
2022-11-26T08:01:29.892Z,36.53
2022-11-26T08:03:59.327Z,31.13
2022-11-26T08:06:29.869Z,39.13
2022-11-26T08:08:59.876Z,37.67
2022-11-26T08:11:29.210Z,33.35
2022-11-26T08:14:01.740Z,38.10
2022-11-26T08:16:29.507Z,38.33
2022-11-26T08:18:58.425Z,36.00
2022-11-26T08:21:26.935Z,27.95
2022-11-26T08:23:55.476Z,40.08
2022-11-26T08:26:31.412Z,34.95
2022-11-26T08:29:00.689Z,38.20
2022-11-26T08:31:28.632Z,32.38
2022-11-26T08:33:58.145Z,32.30
2022-11-26T08:36:28.351Z,27.67
2022-11-26T08:38:56.050Z,32.63
2022-11-26T08:41:23.568Z,32.80
2022-11-26T08:44:06.120Z,31.67
2022-11-26T08:46:34.883Z,24.70
2022-11-26T08:49:02.573Z,21.67
2022-11-26T08:51:30.085Z,28.80
2022-11-26T08:53:57.510Z,27.98
2022-11-26T08:56:25.056Z,25.23
2022-11-26T08:58:52.671Z,25.95
2022-11-26T09:01:26.894Z,29.17
2022-11-26T09:03:58.056Z,31.55
2022-11-26T09:06:27.939Z,24.88
2022-11-26T09:09:14.493Z,28.65
2022-11-26T09:11:49.800Z,25.33
2022-11-26T09:14:20.600Z,24.42
2022-11-26T09:16:48.289Z,22.92
2022-11-26T09:19:16.475Z,31.52
2022-11-26T09:21:45.241Z,24.73
2022-11-26T09:24:13.269Z,20.10
2022-11-26T09:26:41.163Z,21.15
2022-11-26T09:29:12.779Z,20.80
2022-11-26T09:32:00.623Z,22.35
2022-11-26T09:34:27.845Z,23.70
2022-11-26T09:36:55.429Z,25.77
2022-11-26T09:39:23.009Z,17.58
2022-11-26T09:42:04.320Z,25.00
2022-11-26T09:45:12.573Z,28.13
2022-11-26T09:47:43.568Z,27.75
2022-11-26T09:50:10.983Z,24.08
2022-11-26T09:53:03.512Z,17.83
2022-11-26T09:55:33.828Z,23.77
2022-11-26T09:58:16.431Z,16.25
2022-11-26T10:00:50.403Z,25.48
2022-11-26T10:03:23.507Z,12.93
2022-11-26T10:05:56.772Z,18.50
2022-11-26T10:08:45.730Z,16.58
2022-11-26T10:11:31.293Z,21.60
2022-11-26T10:14:23.514Z,20.15
2022-11-26T10:17:21.598Z,19.35
2022-11-26T10:20:14.089Z,15.85
2022-11-26T10:23:02.889Z,23.25
2022-11-26T10:25:39.410Z,24.58
2022-11-26T10:28:18.410Z,20.75
2022-11-26T10:30:51.598Z,16.08
2022-11-26T10:33:20.701Z,19.90
2022-11-26T10:35:50.050Z,25.05
2022-11-26T10:38:17.920Z,16.92
2022-11-26T10:40:45.401Z,17.13
2022-11-26T10:43:22.423Z,13.20
2022-11-26T10:45:52.488Z,15.82
2022-11-26T10:48:22.414Z,15.68
2022-11-26T10:51:02.000Z,14.95
2022-11-26T10:53:34.991Z,19.42
2022-11-26T10:56:07.274Z,14.27
2022-11-26T10:58:42.978Z,19.10
2022-11-26T11:01:14.517Z,12.77
2022-11-26T11:04:13.855Z,19.10
2022-11-26T11:06:43.480Z,12.57
2022-11-26T11:09:23.165Z,15.65
2022-11-26T11:12:08.402Z,21.48
2022-11-26T11:14:41.091Z,18.35
2022-11-26T11:17:29.700Z,15.25
2022-11-26T11:20:11.800Z,20.70
2022-11-26T11:22:39.368Z,12.27
2022-11-26T11:25:21.481Z,16.17
2022-11-26T11:27:49.710Z,20.60
2022-11-26T11:30:25.839Z,13.55
2022-11-26T11:32:57.712Z,16.85
2022-11-26T11:35:30.410Z,24.48
2022-11-26T11:37:58.888Z,20.38
2022-11-26T11:40:30.494Z,15.55
2022-11-26T11:43:01.877Z,20.42
2022-11-26T11:45:34.590Z,18.20
2022-11-26T11:48:28.794Z,13.55
2022-11-26T11:51:08.580Z,19.73
2022-11-26T11:54:11.190Z,13.00
2022-11-26T11:56:48.920Z,15.70
2022-11-26T11:59:19.450Z,15.88
2022-11-26T12:01:59.278Z,24.13
2022-11-26T12:04:45.246Z,18.27
2022-11-26T12:07:29.747Z,16.27
2022-11-26T12:10:05.536Z,21.73
2022-11-26T12:12:37.396Z,24.55
2022-11-26T12:15:13.193Z,26.98
2022-11-26T12:17:55.566Z,14.65
2022-11-26T12:20:27.700Z,18.48
2022-11-26T12:23:09.025Z,12.80
2022-11-26T12:25:39.837Z,24.48
2022-11-26T12:28:18.294Z,18.02
2022-11-26T12:31:30.011Z,22.13
2022-11-26T12:34:16.947Z,16.95
2022-11-26T12:36:51.331Z,21.48
2022-11-26T12:39:24.490Z,10.70
2022-11-26T12:42:19.949Z,20.65
2022-11-26T12:44:51.876Z,15.73
2022-11-26T12:47:30.601Z,19.17
2022-11-26T12:50:24.067Z,15.60
2022-11-26T12:53:12.629Z,16.60
2022-11-26T12:55:52.870Z,17.02
2022-11-26T12:58:24.500Z,15.57
2022-11-26T13:00:55.788Z,15.35
2022-11-26T13:03:33.827Z,17.42
2022-11-26T13:06:13.043Z,19.45
2022-11-26T13:09:36.277Z,14.43
2022-11-26T13:12:09.550Z,17.35
2022-11-26T13:15:12.209Z,24.67
2022-11-26T13:17:51.039Z,14.38
2022-11-26T13:20:43.456Z,14.43
2022-11-26T13:23:27.396Z,18.13
2022-11-26T13:26:13.651Z,14.20
2022-11-26T13:29:02.979Z,15.82
2022-11-26T13:32:09.908Z,15.23
2022-11-26T13:34:59.142Z,19.77
2022-11-26T13:37:44.696Z,18.27
2022-11-26T13:40:35.162Z,15.55
2022-11-26T13:43:40.098Z,12.82
2022-11-26T13:46:07.607Z,12.90
2022-11-26T13:48:45.693Z,19.98
2022-11-26T13:51:31.186Z,21.80
2022-11-26T13:54:06.619Z,20.75
2022-11-26T13:56:37.350Z,13.75
2022-11-26T13:59:28.592Z,17.65
2022-11-26T14:01:56.764Z,14.15
2022-11-26T14:04:24.198Z,14.82
2022-11-26T14:07:03.996Z,11.55
2022-11-26T14:09:44.485Z,16.33
2022-11-26T14:12:16.681Z,14.35
2022-11-26T14:14:49.210Z,17.73
2022-11-26T14:17:32.416Z,9.48
2022-11-26T14:20:02.318Z,13.70
2022-11-26T14:22:32.797Z,14.02
2022-11-26T14:25:03.319Z,14.98
2022-11-26T14:27:30.783Z,11.43
2022-11-26T14:30:06.952Z,12.45
2022-11-26T14:32:41.135Z,15.80
2022-11-26T14:35:36.229Z,15.30
2022-11-26T14:38:06.263Z,12.50
2022-11-26T14:40:38.430Z,15.35
2022-11-26T14:43:24.129Z,17.27
2022-11-26T14:46:12.564Z,16.40
2022-11-26T14:48:49.759Z,20.25
2022-11-26T14:51:23.425Z,14.60
2022-11-26T14:53:51.831Z,10.77
2022-11-26T14:56:21.717Z,9.50
2022-11-26T14:58:54.009Z,14.98
2022-11-26T15:01:24.570Z,19.15
2022-11-26T15:03:59.932Z,12.38
2022-11-26T15:06:38.581Z,14.77
2022-11-26T15:09:15.548Z,17.38
2022-11-26T15:11:50.677Z,15.60
2022-11-26T15:14:29.968Z,13.25
2022-11-26T15:17:02.910Z,15.48
2022-11-26T15:19:36.336Z,22.17
2022-11-26T15:22:07.967Z,12.82
2022-11-26T15:24:36.404Z,10.25
2022-11-26T15:27:03.999Z,17.65
2022-11-26T15:29:37.421Z,16.67
2022-11-26T15:32:05.189Z,10.48
2022-11-26T15:34:33.409Z,12.68
2022-11-26T15:37:01.049Z,12.93
2022-11-26T15:39:31.389Z,15.35
2022-11-26T15:42:04.849Z,18.67
2022-11-26T15:44:42.391Z,15.73
2022-11-26T15:47:20.631Z,14.55
2022-11-26T15:49:52.929Z,16.38
2022-11-26T15:52:32.999Z,11.90
2022-11-26T15:55:12.357Z,17.17
2022-11-26T15:57:42.261Z,15.98
2022-11-26T16:00:30.760Z,23.05
2022-11-26T16:02:58.445Z,15.60
2022-11-26T16:05:39.500Z,18.35
2022-11-26T16:08:30.469Z,22.08
2022-11-26T16:11:06.781Z,19.58
2022-11-26T16:13:36.191Z,24.02
2022-11-26T16:16:21.851Z,18.77
2022-11-26T16:19:00.410Z,21.88
2022-11-26T16:21:32.413Z,25.42
2022-11-26T16:24:05.722Z,24.95
2022-11-26T16:26:52.771Z,19.65
2022-11-26T16:29:20.306Z,24.23
2022-11-26T16:31:47.710Z,24.40
2022-11-26T16:34:15.230Z,20.92
2022-11-26T16:36:43.261Z,21.80
2022-11-26T16:39:15.050Z,25.90
2022-11-26T16:41:43.475Z,22.08
2022-11-26T16:44:10.987Z,22.08
2022-11-26T16:46:38.897Z,25.17
2022-11-26T16:49:06.731Z,17.70
2022-11-26T16:51:34.240Z,18.27
2022-11-26T16:54:01.851Z,26.13
2022-11-26T16:56:40.103Z,27.63
2022-11-26T16:59:18.527Z,24.85
2022-11-26T17:01:46.491Z,24.63
2022-11-26T17:04:14.724Z,24.90
2022-11-26T17:06:43.409Z,24.85
2022-11-26T17:09:17.809Z,19.58
2022-11-26T17:11:45.846Z,22.52
2022-11-26T17:14:13.446Z,23.88
2022-11-26T17:16:41.224Z,25.20
2022-11-26T17:19:14.040Z,22.65
2022-11-26T17:21:41.539Z,25.60
2022-11-26T17:24:09.342Z,23.95
2022-11-26T17:26:36.920Z,20.98
2022-11-26T17:29:04.577Z,19.55
2022-11-26T17:31:32.165Z,30.63
2022-11-26T17:33:59.720Z,24.75
2022-11-26T17:36:27.359Z,25.67
2022-11-26T17:38:54.990Z,23.50
2022-11-26T17:41:22.479Z,21.88
2022-11-26T17:43:50.051Z,26.60
2022-11-26T17:46:20.467Z,25.58
2022-11-26T17:48:49.369Z,23.63
2022-11-26T17:51:17.329Z,25.08
2022-11-26T17:53:45.199Z,18.58
2022-11-26T17:56:18.849Z,28.48
2022-11-26T17:58:46.909Z,21.52
2022-11-26T18:01:15.895Z,29.02
2022-11-26T18:03:43.884Z,23.40
2022-11-26T18:06:16.601Z,28.30
2022-11-26T18:08:44.976Z,26.50
2022-11-26T18:11:14.356Z,28.25
2022-11-26T18:13:41.871Z,34.80
2022-11-26T18:16:09.359Z,29.45
2022-11-26T18:18:36.849Z,25.13
2022-11-26T18:21:05.062Z,32.92
2022-11-26T18:23:32.879Z,30.90
2022-11-26T18:26:00.969Z,19.35
2022-11-26T18:28:28.780Z,20.23
2022-11-26T18:30:59.910Z,20.00
2022-11-26T18:33:27.528Z,23.30
2022-11-26T18:35:55.017Z,30.27
2022-11-26T18:38:22.630Z,22.95
2022-11-26T18:40:59.837Z,19.17
2022-11-26T18:43:27.410Z,22.15
2022-11-26T18:45:54.890Z,17.60
2022-11-26T18:48:22.446Z,22.40
2022-11-26T18:50:59.799Z,20.23
2022-11-26T18:53:28.317Z,23.52
2022-11-26T18:55:57.118Z,17.17
2022-11-26T18:58:25.464Z,23.17
2022-11-26T19:00:58.784Z,27.08
2022-11-26T19:03:27.610Z,33.13
2022-11-26T19:05:55.390Z,22.85
2022-11-26T19:08:24.049Z,27.70
2022-11-26T19:10:51.774Z,25.90
2022-11-26T19:13:19.241Z,28.77
2022-11-26T19:15:46.710Z,21.10
2022-11-26T19:18:14.786Z,25.45
2022-11-26T19:20:50.432Z,20.48
2022-11-26T19:23:24.120Z,22.83
2022-11-26T19:25:52.029Z,25.35
2022-11-26T19:28:19.698Z,21.75
2022-11-26T19:31:01.109Z,21.25
2022-11-26T19:33:28.811Z,19.88
2022-11-26T19:35:56.810Z,18.80
2022-11-26T19:38:24.838Z,21.27
2022-11-26T19:40:59.730Z,19.13
2022-11-26T19:47:33.366Z,22.05
2022-11-26T19:50:00.838Z,17.17
2022-11-26T19:52:28.342Z,15.73
2022-11-26T19:54:55.891Z,22.65
2022-11-26T19:57:23.375Z,17.73
2022-11-26T19:59:51.446Z,20.42
2022-11-26T20:02:18.984Z,17.23
2022-11-26T20:04:46.426Z,20.75
2022-11-26T20:07:13.888Z,18.92
2022-11-26T20:09:41.649Z,22.92
2022-11-26T20:12:09.371Z,22.55
2022-11-26T20:14:36.826Z,25.77
2022-11-26T20:17:04.539Z,23.10
2022-11-26T20:19:32.174Z,23.23
2022-11-26T20:21:59.702Z,19.30
2022-11-26T20:24:27.169Z,17.95
2022-11-26T20:26:54.736Z,22.00
2022-11-26T20:29:23.075Z,22.80
2022-11-26T20:31:52.154Z,15.85
2022-11-26T20:34:24.715Z,25.77
2022-11-26T20:36:52.656Z,20.52
2022-11-26T20:39:21.997Z,18.90
2022-11-26T20:41:50.002Z,17.58
2022-11-26T20:44:17.607Z,20.05
2022-11-26T20:46:45.093Z,27.70
2022-11-26T20:49:12.637Z,24.40
2022-11-26T20:51:40.276Z,25.65
2022-11-26T20:54:07.764Z,22.05
2022-11-26T20:56:35.365Z,22.65
2022-11-26T20:59:02.896Z,21.92
2022-11-26T21:01:31.678Z,21.02
2022-11-26T21:03:59.979Z,21.95
2022-11-26T21:06:30.581Z,17.55
2022-11-26T21:09:03.709Z,18.98
2022-11-26T21:11:31.682Z,20.47
2022-11-26T21:14:01.658Z,19.50
2022-11-26T21:16:30.684Z,16.88
2022-11-26T21:18:58.842Z,14.10
2022-11-26T21:21:28.135Z,16.30
2022-11-26T21:23:57.372Z,13.80
2022-11-26T21:26:26.587Z,14.82
2022-11-26T21:28:56.184Z,14.35
2022-11-26T21:31:24.500Z,13.30
2022-11-26T21:33:58.047Z,12.57
2022-11-26T21:36:26.522Z,12.10
2022-11-26T21:38:54.405Z,18.90
2022-11-26T21:41:23.016Z,15.25
2022-11-26T21:43:51.235Z,14.27
2022-11-26T21:46:24.001Z,17.77
2022-11-26T21:48:53.097Z,14.00
2022-11-26T21:51:21.446Z,16.02
2022-11-26T21:53:49.969Z,17.60
2022-11-26T21:56:20.361Z,16.65
2022-11-26T21:58:48.563Z,22.05
2022-11-26T22:01:23.050Z,17.85
2022-11-26T22:03:52.842Z,17.67
2022-11-26T22:06:21.677Z,21.02
2022-11-26T22:08:49.864Z,23.05
2022-11-26T22:11:38.966Z,22.08
2022-11-26T22:14:08.027Z,25.65
2022-11-26T22:16:35.824Z,19.42
2022-11-26T22:19:05.126Z,24.60
2022-11-26T22:21:39.316Z,25.17
2022-11-26T22:24:10.427Z,21.85
2022-11-26T22:26:38.076Z,19.02
2022-11-26T22:29:06.221Z,25.08
2022-11-26T22:31:38.598Z,27.67
2022-11-26T22:34:10.154Z,23.25
2022-11-26T22:36:38.594Z,27.92
2022-11-26T22:39:10.967Z,23.25
2022-11-26T22:41:40.646Z,23.88
2022-11-26T22:44:08.308Z,24.75
2022-11-26T22:46:38.409Z,30.63
2022-11-26T22:49:07.182Z,25.90
2022-11-26T22:51:35.724Z,25.00
2022-11-26T22:54:07.083Z,25.33
2022-11-26T22:56:38.005Z,24.13
2022-11-26T22:59:07.240Z,21.30
2022-11-26T23:01:36.631Z,25.85
2022-11-26T23:04:07.312Z,21.67
2022-11-26T23:06:35.815Z,20.35
2022-11-26T23:09:05.906Z,21.55
2022-11-26T23:11:37.624Z,19.48
2022-11-26T23:14:07.609Z,22.35
2022-11-26T23:16:37.120Z,23.73
2022-11-26T23:19:04.953Z,20.73
2022-11-26T23:21:35.655Z,25.48
2022-11-26T23:24:03.248Z,27.52
2022-11-26T23:26:33.018Z,23.95
2022-11-26T23:29:02.414Z,28.20
2022-11-26T23:31:36.932Z,19.48
2022-11-26T23:34:05.701Z,21.00
2022-11-26T23:36:34.368Z,22.85
2022-11-26T23:39:04.268Z,18.50
2022-11-26T23:41:31.926Z,19.73
2022-11-26T23:43:59.427Z,21.25
2022-11-26T23:46:29.678Z,24.35
2022-11-26T23:48:57.798Z,21.10
2022-11-26T23:51:28.227Z,20.75
2022-11-26T23:53:56.078Z,15.15
2022-11-26T23:56:26.457Z,15.57
2022-11-26T23:58:56.413Z,19.08
